Time;durP1;ratioP1;P1;durP2;ratioP2;P2;SDS_P1;SDS_P2;PMS_P1;PMS_P2;Temp;Humidity;BMP_temperature;BMP_pressure;BME280_temperature;BME280_humidity;BME280_pressure;Samples;Min_cycle;Max_cycle;Signal;HPM_P1;HPM_P2
2023/01/30 00:01:18;;;;;;;0.10;0.10;;;2.00;99.90;;;;;;5060812;28;20196;-81
2023/01/30 00:03:44;;;;;;;0.00;0.00;;;2.00;99.90;;;;;;5062975;28;20194;-81
2023/01/30 00:06:10;;;;;;;0.10;0.10;;;1.90;99.90;;;;;;5062738;28;20226;-80
2023/01/30 00:08:35;;;;;;;0.10;0.10;;;1.90;99.90;;;;;;5062214;28;20192;-81
2023/01/30 00:11:06;;;;;;;0.10;0.10;;;1.90;99.90;;;;;;5062810;28;20190;-81
2023/01/30 00:13:32;;;;;;;0.00;0.00;;;2.00;99.90;;;;;;5061676;28;20215;-81
2023/01/30 00:15:58;;;;;;;0.10;0.10;;;1.90;99.90;;;;;;5061459;28;20182;-80
2023/01/30 00:18:23;;;;;;;0.10;0.10;;;2.00;99.90;;;;;;5059685;28;20188;-81
2023/01/30 00:20:58;;;;;;;0.10;0.10;;;1.90;99.90;;;;;;5061977;28;20276;-81
2023/01/30 00:23:25;;;;;;;0.10;0.10;;;2.00;99.90;;;;;;5061443;28;20183;-81
2023/01/30 00:25:51;;;;;;;0.93;0.93;;;1.90;99.90;;;;;;5061863;28;20201;-82
2023/01/30 00:28:16;;;;;;;0.10;0.10;;;2.00;99.90;;;;;;5060312;28;20671;-80
2023/01/30 00:30:42;;;;;;;0.10;0.10;;;2.00;99.90;;;;;;5062932;28;20262;-79
2023/01/30 00:33:09;;;;;;;0.10;0.10;;;1.90;99.90;;;;;;5063791;28;20295;-79
2023/01/30 00:35:34;;;;;;;0.10;0.10;;;1.90;99.90;;;;;;5063543;28;20191;-81
2023/01/30 00:38:00;;;;;;;0.10;0.10;;;1.90;99.90;;;;;;5062792;28;20535;-80
2023/01/30 00:40:27;;;;;;;0.00;0.00;;;1.90;99.90;;;;;;5066228;28;20278;-80
2023/01/30 00:48:27;;;;;;;0.10;0.10;;;2.00;99.90;;;;;;5068219;28;20229;-80
2023/01/30 00:50:53;;;;;;;0.00;0.00;;;2.00;99.90;;;;;;5064854;28;20841;-81
2023/01/30 00:53:19;;;;;;;0.10;0.10;;;2.00;99.90;;;;;;5066504;28;20266;-80
2023/01/30 00:55:44;;;;;;;0.10;0.10;;;2.10;99.90;;;;;;5065687;28;20199;-81
2023/01/30 00:58:11;;;;;;;0.10;0.10;;;2.10;99.90;;;;;;5065167;28;20191;-80
2023/01/30 01:00:37;;;;;;;0.77;0.77;;;2.10;99.90;;;;;;5065047;28;20314;-81
2023/01/30 01:03:03;;;;;;;0.10;0.10;;;2.10;99.90;;;;;;5066324;28;20373;-80
2023/01/30 01:05:29;;;;;;;0.00;0.00;;;2.10;99.90;;;;;;5065909;28;20180;-80
2023/01/30 01:07:54;;;;;;;0.10;0.10;;;2.10;99.90;;;;;;5063917;28;20187;-79
2023/01/30 01:10:21;;;;;;;0.10;0.10;;;2.00;99.90;;;;;;5064870;28;20208;-80
2023/01/30 01:12:51;;;;;;;0.10;0.10;;;2.00;99.90;;;;;;5063289;28;20668;-81
2023/01/30 01:15:16;;;;;;;0.10;0.10;;;2.00;99.90;;;;;;5074072;28;20274;-81
2023/01/30 01:17:42;;;;;;;0.10;0.10;;;2.10;99.90;;;;;;5065331;28;20299;-80
2023/01/30 01:20:09;;;;;;;0.10;0.10;;;2.00;99.90;;;;;;5064431;28;20215;-81
2023/01/30 01:22:35;;;;;;;0.10;0.10;;;2.00;99.90;;;;;;5066786;28;20313;-80
2023/01/30 01:25:00;;;;;;;0.10;0.10;;;2.10;99.90;;;;;;5065342;28;20275;-80
2023/01/30 01:27:27;;;;;;;0.10;0.10;;;2.10;99.90;;;;;;5065186;28;20193;-80
2023/01/30 01:29:53;;;;;;;0.10;0.10;;;2.10;99.90;;;;;;5064600;28;20669;-80
2023/01/30 01:32:20;;;;;;;0.10;0.10;;;2.10;99.90;;;;;;5063920;28;20198;-81
2023/01/30 01:34:45;;;;;;;0.10;0.10;;;2.10;99.90;;;;;;5064920;28;20192;-81
2023/01/30 01:37:11;;;;;;;0.10;0.10;;;2.20;99.90;;;;;;5066496;28;20605;-80
2023/01/30 01:42:23;;;;;;;0.10;0.10;;;2.10;99.90;;;;;;5065008;28;20198;-80
2023/01/30 01:45:14;;;;;;;0.10;0.10;;;2.10;99.90;;;;;;5065012;28;20189;-81
2023/01/30 01:47:45;;;;;;;0.10;0.10;;;2.10;99.90;;;;;;5065846;28;20213;-80
2023/01/30 01:50:45;;;;;;;0.10;0.10;;;2.10;99.90;;;;;;5061989;28;20211;-80
2023/01/30 01:53:13;;;;;;;0.10;0.10;;;2.20;99.90;;;;;;5056377;28;20231;-80
2023/01/30 01:55:40;;;;;;;0.10;0.10;;;2.20;99.90;;;;;;5063410;28;20252;-80
2023/01/30 01:58:32;;;;;;;0.10;0.10;;;2.20;99.90;;;;;;5061222;28;20195;-81
2023/01/30 02:00:59;;;;;;;0.00;0.00;;;2.20;99.90;;;;;;5053003;28;20284;-80
2023/01/30 02:03:27;;;;;;;0.10;0.10;;;2.20;99.90;;;;;;5063289;28;20200;-81
2023/01/30 02:05:57;;;;;;;0.10;0.10;;;2.20;99.90;;;;;;5062732;28;20191;-81
2023/01/30 02:08:28;;;;;;;0.10;0.10;;;2.20;99.90;;;;;;5060965;28;20241;-80
2023/01/30 02:11:13;;;;;;;0.10;0.10;;;2.20;99.90;;;;;;5061831;28;20206;-80
2023/01/30 02:13:38;;;;;;;0.10;0.10;;;2.20;99.90;;;;;;5062276;28;20185;-80
2023/01/30 02:16:06;;;;;;;0.10;0.10;;;2.20;99.90;;;;;;5062288;28;20669;-80
2023/01/30 02:18:34;;;;;;;0.10;0.10;;;2.10;99.90;;;;;;5062005;28;20497;-80
2023/01/30 02:21:37;;;;;;;0.10;0.10;;;2.10;99.90;;;;;;5073021;28;20223;-80
2023/01/30 02:24:12;;;;;;;1.53;1.50;;;2.20;99.90;;;;;;5063631;28;20183;-81
2023/01/30 02:26:59;;;;;;;0.10;0.10;;;2.20;99.90;;;;;;5060273;28;20194;-80
2023/01/30 02:29:43;;;;;;;0.10;0.10;;;2.10;99.90;;;;;;5061666;28;20239;-80
2023/01/30 02:32:21;;;;;;;0.10;0.10;;;2.20;99.90;;;;;;5061600;28;20257;-80
2023/01/30 02:35:20;;;;;;;0.10;0.10;;;2.20;99.90;;;;;;5061170;28;20256;-81
2023/01/30 02:38:11;;;;;;;0.10;0.10;;;2.10;99.90;;;;;;5069201;28;20676;-81
2023/01/30 02:40:40;;;;;;;0.10;0.10;;;2.20;99.90;;;;;;5062261;28;20605;-79
2023/01/30 02:43:23;;;;;;;0.10;0.10;;;2.10;99.90;;;;;;5060981;28;20673;-79
2023/01/30 02:46:04;;;;;;;0.10;0.10;;;2.20;99.90;;;;;;5061549;28;20182;-79
2023/01/30 02:48:53;;;;;;;0.10;0.10;;;2.20;99.90;;;;;;5062621;28;20559;-80
2023/01/30 02:51:25;;;;;;;0.10;0.10;;;2.20;99.90;;;;;;5069727;28;20191;-80
2023/01/30 02:53:50;;;;;;;0.10;0.10;;;2.20;99.90;;;;;;5061070;28;20179;-81
2023/01/30 02:56:16;;;;;;;0.10;0.10;;;2.20;99.90;;;;;;5059302;28;20190;-80
2023/01/30 02:58:48;;;;;;;0.57;0.57;;;2.20;99.90;;;;;;5059422;28;20180;-80
2023/01/30 03:01:44;;;;;;;0.00;0.00;;;2.20;99.90;;;;;;5061553;28;20281;-80
2023/01/30 03:04:51;;;;;;;0.10;0.10;;;2.20;99.90;;;;;;5060422;28;20275;-79
2023/01/30 03:07:27;;;;;;;0.00;0.00;;;2.20;99.90;;;;;;5047255;28;20199;-81
2023/01/30 03:10:06;;;;;;;0.10;0.10;;;2.20;99.90;;;;;;5059304;28;20933;-80
2023/01/30 03:12:39;;;;;;;0.10;0.10;;;2.20;99.90;;;;;;5061384;28;20242;-81
2023/01/30 03:15:11;;;;;;;0.10;0.10;;;2.20;99.90;;;;;;5061499;28;20190;-80
2023/01/30 03:17:43;;;;;;;0.10;0.10;;;2.20;99.90;;;;;;5063839;28;20191;-81
2023/01/30 03:20:09;;;;;;;0.10;0.10;;;2.20;99.90;;;;;;5061546;28;20229;-81
2023/01/30 03:22:37;;;;;;;0.10;0.10;;;2.30;99.90;;;;;;5063270;28;20188;-81
2023/01/30 03:25:03;;;;;;;0.10;0.10;;;2.30;99.90;;;;;;5063726;28;20187;-80
2023/01/30 03:27:29;;;;;;;0.10;0.10;;;2.30;99.90;;;;;;5062576;28;20536;-79
2023/01/30 03:29:54;;;;;;;0.10;0.10;;;2.20;99.90;;;;;;5061858;28;20277;-81
2023/01/30 03:32:20;;;;;;;0.10;0.10;;;2.20;99.90;;;;;;5064442;28;20200;-80
2023/01/30 03:34:46;;;;;;;0.10;0.10;;;2.20;99.90;;;;;;5063989;28;20196;-81
2023/01/30 03:37:11;;;;;;;0.10;0.10;;;2.20;99.90;;;;;;5064304;28;20548;-80
2023/01/30 03:39:37;;;;;;;0.10;0.10;;;2.20;99.90;;;;;;5062167;28;20642;-79
2023/01/30 03:42:02;;;;;;;0.10;0.10;;;2.30;99.90;;;;;;5064693;28;20191;-81
2023/01/30 03:44:28;;;;;;;0.10;0.10;;;2.30;99.90;;;;;;5060727;28;20225;-80
2023/01/30 03:46:53;;;;;;;0.10;0.10;;;2.40;99.90;;;;;;5063431;28;20176;-79
2023/01/30 03:49:20;;;;;;;0.10;0.10;;;2.40;99.90;;;;;;5062877;28;20211;-80
2023/01/30 03:51:45;;;;;;;0.10;0.10;;;2.40;99.90;;;;;;5061613;28;20192;-81
2023/01/30 03:54:11;;;;;;;0.00;0.00;;;2.40;99.90;;;;;;5061876;28;20203;-80
2023/01/30 03:56:36;;;;;;;0.03;0.03;;;2.50;99.90;;;;;;5073052;28;20294;-79
2023/01/30 03:59:02;;;;;;;0.10;0.10;;;2.50;99.90;;;;;;5061139;28;20212;-81
2023/01/30 04:01:27;;;;;;;0.10;0.10;;;2.50;99.90;;;;;;5063007;28;20199;-81
2023/01/30 04:03:53;;;;;;;0.10;0.10;;;2.60;99.90;;;;;;5062492;28;20198;-80
2023/01/30 04:06:18;;;;;;;0.10;0.10;;;2.60;99.90;;;;;;5062726;28;20248;-81
2023/01/30 04:08:44;;;;;;;0.10;0.10;;;2.60;99.90;;;;;;5064140;28;20176;-81
2023/01/30 04:11:09;;;;;;;0.10;0.10;;;2.70;99.90;;;;;;5064159;28;20635;-79
2023/01/30 04:13:35;;;;;;;0.10;0.10;;;2.70;99.90;;;;;;5063895;28;20197;-79
2023/01/30 04:16:21;;;;;;;0.10;0.10;;;2.70;99.90;;;;;;5063509;28;20180;-80
2023/01/30 04:18:47;;;;;;;0.10;0.10;;;2.70;99.90;;;;;;5065159;28;20194;-81
2023/01/30 04:21:13;;;;;;;0.10;0.10;;;2.70;99.90;;;;;;5066420;28;20185;-80
2023/01/30 04:23:39;;;;;;;0.10;0.10;;;2.70;99.90;;;;;;5068393;28;20667;-80
2023/01/30 04:26:05;;;;;;;0.10;0.10;;;2.70;99.90;;;;;;5063853;28;20201;-81
2023/01/30 04:28:31;;;;;;;0.10;0.10;;;2.70;99.90;;;;;;5061460;28;20192;-80
2023/01/30 04:30:56;;;;;;;0.10;0.10;;;2.70;99.90;;;;;;5064429;28;20216;-80
2023/01/30 04:33:22;;;;;;;0.10;0.10;;;2.70;99.90;;;;;;5063633;28;20240;-79
2023/01/30 04:35:55;;;;;;;0.10;0.10;;;2.80;99.90;;;;;;5066896;28;20212;-80
2023/01/30 04:38:21;;;;;;;0.10;0.10;;;2.80;99.90;;;;;;5065762;28;20193;-80
2023/01/30 04:40:51;;;;;;;0.10;0.10;;;2.80;99.90;;;;;;5065891;28;20570;-80
2023/01/30 04:43:18;;;;;;;0.10;0.10;;;2.70;99.90;;;;;;5066901;28;20195;-81
2023/01/30 04:45:45;;;;;;;0.10;0.10;;;2.80;99.90;;;;;;5066269;28;20351;-81
2023/01/30 04:48:11;;;;;;;0.10;0.10;;;2.80;99.90;;;;;;5066894;28;20186;-80
2023/01/30 04:50:38;;;;;;;0.10;0.10;;;2.80;99.90;;;;;;5065555;28;20221;-80
2023/01/30 04:53:04;;;;;;;0.10;0.10;;;2.80;99.90;;;;;;5065452;28;20246;-81
2023/01/30 04:55:29;;;;;;;0.10;0.10;;;2.90;99.90;;;;;;5065925;28;20195;-81
2023/01/30 04:57:55;;;;;;;0.10;0.10;;;2.90;99.90;;;;;;5064924;28;20185;-80
2023/01/30 05:00:21;;;;;;;0.10;0.10;;;2.90;99.90;;;;;;5064307;28;20227;-80
2023/01/30 05:02:46;;;;;;;0.10;0.10;;;3.00;99.90;;;;;;5064588;28;20202;-80
2023/01/30 05:05:12;;;;;;;0.10;0.10;;;3.10;99.90;;;;;;5065369;28;20236;-80
2023/01/30 05:07:37;;;;;;;0.10;0.10;;;3.10;99.90;;;;;;5066139;28;20197;-80
2023/01/30 05:10:03;;;;;;;0.00;0.00;;;3.10;99.90;;;;;;5063295;28;20207;-80
2023/01/30 05:12:29;;;;;;;0.00;0.00;;;3.10;99.90;;;;;;5065320;28;20192;-80
2023/01/30 05:14:55;;;;;;;0.10;0.10;;;3.10;99.90;;;;;;5065655;28;20265;-81
2023/01/30 05:17:21;;;;;;;0.10;0.10;;;3.10;99.90;;;;;;5066913;28;20194;-80
2023/01/30 05:19:46;;;;;;;0.10;0.10;;;3.10;99.90;;;;;;5063147;28;20208;-80
2023/01/30 05:22:12;;;;;;;0.10;0.10;;;3.10;99.90;;;;;;5065855;28;20326;-81
2023/01/30 05:24:37;;;;;;;0.10;0.10;;;3.10;99.90;;;;;;5062785;28;20277;-81
2023/01/30 05:27:03;;;;;;;0.10;0.10;;;3.20;99.90;;;;;;5063865;28;20430;-80
2023/01/30 05:29:28;;;;;;;0.10;0.10;;;3.10;99.90;;;;;;5064107;28;20228;-80
2023/01/30 05:31:54;;;;;;;0.10;0.10;;;3.10;99.90;;;;;;5065025;28;20188;-81
2023/01/30 05:34:20;;;;;;;0.10;0.10;;;3.20;99.90;;;;;;5064362;28;20197;-80
2023/01/30 05:36:45;;;;;;;0.10;0.10;;;3.20;99.90;;;;;;5063102;28;20208;-81
2023/01/30 05:39:11;;;;;;;0.10;0.10;;;3.20;99.90;;;;;;5064191;28;20220;-81
2023/01/30 05:41:36;;;;;;;0.00;0.00;;;3.20;99.90;;;;;;5067170;28;20669;-81
2023/01/30 05:44:02;;;;;;;0.60;0.60;;;3.20;99.90;;;;;;5063843;28;20180;-81
2023/01/30 05:46:27;;;;;;;0.10;0.10;;;3.10;99.90;;;;;;5065003;28;20269;-80
2023/01/30 05:48:53;;;;;;;0.10;0.10;;;3.10;99.90;;;;;;5065991;28;20191;-80
2023/01/30 05:51:25;;;;;;;0.10;0.10;;;3.10;99.90;;;;;;5065361;28;20270;-79
2023/01/30 05:53:51;;;;;;;0.10;0.10;;;3.20;99.90;;;;;;5064256;28;20624;-80
2023/01/30 05:56:17;;;;;;;0.10;0.10;;;3.20;99.90;;;;;;5065100;28;20257;-80
2023/01/30 05:58:43;;;;;;;0.10;0.10;;;3.20;99.90;;;;;;5065393;28;20189;-81
2023/01/30 06:01:11;;;;;;;0.10;0.10;;;3.10;99.90;;;;;;5066305;28;20210;-80
2023/01/30 06:03:37;;;;;;;0.10;0.10;;;3.10;99.90;;;;;;5065644;28;20947;-79
2023/01/30 06:06:04;;;;;;;0.10;0.10;;;3.00;99.90;;;;;;5064458;28;20189;-80
2023/01/30 06:08:31;;;;;;;0.10;0.10;;;3.00;99.90;;;;;;5060884;28;20284;-80
2023/01/30 06:11:23;;;;;;;0.10;0.10;;;3.00;99.90;;;;;;5061333;28;20246;-80
2023/01/30 06:13:49;;;;;;;0.10;0.10;;;3.00;99.90;;;;;;5061455;28;20559;-81
2023/01/30 06:16:16;;;;;;;0.10;0.10;;;3.00;99.90;;;;;;5061607;28;20287;-80
2023/01/30 06:18:42;;;;;;;0.10;0.10;;;3.00;99.90;;;;;;5062877;28;20197;-80
2023/01/30 06:21:08;;;;;;;0.03;0.03;;;3.00;99.90;;;;;;5059894;28;20219;-80
2023/01/30 06:23:34;;;;;;;0.10;0.10;;;2.90;99.90;;;;;;5058501;28;20188;-79
2023/01/30 06:26:00;;;;;;;0.10;0.10;;;3.00;99.90;;;;;;5061586;28;20195;-79
2023/01/30 06:28:26;;;;;;;0.10;0.10;;;2.90;99.90;;;;;;5059398;28;20242;-80
2023/01/30 06:30:52;;;;;;;0.10;0.10;;;2.90;99.90;;;;;;5071028;28;20255;-80
2023/01/30 06:33:19;;;;;;;0.20;0.20;;;2.90;99.90;;;;;;5057650;28;20564;-80
2023/01/30 06:35:48;;;;;;;0.10;0.10;;;2.90;99.90;;;;;;5061992;28;20670;-79
2023/01/30 06:38:14;;;;;;;0.10;0.10;;;2.90;99.90;;;;;;5061728;28;20201;-80
2023/01/30 06:40:42;;;;;;;0.10;0.10;;;2.90;99.90;;;;;;5062768;28;20216;-80
2023/01/30 06:43:08;;;;;;;0.10;0.10;;;2.90;99.90;;;;;;5060658;28;20185;-80
2023/01/30 06:45:33;;;;;;;0.10;0.10;;;2.80;99.90;;;;;;5060696;28;20306;-79
2023/01/30 06:47:59;;;;;;;0.10;0.10;;;2.90;99.90;;;;;;5060079;28;20197;-79
2023/01/30 06:50:27;;;;;;;0.10;0.10;;;2.80;99.90;;;;;;5058570;28;20208;-79
2023/01/30 06:52:53;;;;;;;0.10;0.10;;;2.90;99.90;;;;;;5057573;28;20195;-79
2023/01/30 06:55:21;;;;;;;0.10;0.10;;;2.90;99.90;;;;;;5056232;28;20201;-80
2023/01/30 06:57:48;;;;;;;0.10;0.10;;;2.90;99.90;;;;;;5061144;28;20221;-80
2023/01/30 07:00:19;;;;;;;0.00;0.00;;;2.90;99.90;;;;;;5062790;28;20218;-81
2023/01/30 07:02:45;;;;;;;0.10;0.10;;;2.90;99.90;;;;;;5065272;28;20208;-80
2023/01/30 07:05:11;;;;;;;0.10;0.10;;;2.90;99.90;;;;;;5064797;28;20227;-81
2023/01/30 07:07:37;;;;;;;0.10;0.10;;;2.90;99.90;;;;;;5065741;28;20276;-81
2023/01/30 07:10:04;;;;;;;0.10;0.10;;;2.90;99.90;;;;;;5067204;28;20263;-81
2023/01/30 07:12:30;;;;;;;0.10;0.10;;;2.90;99.90;;;;;;5063562;28;20821;-81
2023/01/30 07:14:56;;;;;;;0.10;0.10;;;2.90;99.90;;;;;;5065606;28;20235;-82
2023/01/30 07:17:21;;;;;;;0.10;0.10;;;2.90;99.90;;;;;;5059651;28;20194;-80
2023/01/30 07:19:47;;;;;;;0.10;0.10;;;3.00;99.90;;;;;;5064539;28;20216;-82
2023/01/30 07:22:13;;;;;;;0.10;0.10;;;3.00;99.90;;;;;;5060273;28;20214;-80
2023/01/30 07:24:41;;;;;;;0.10;0.10;;;3.00;99.90;;;;;;5064014;28;20200;-81
2023/01/30 07:27:08;;;;;;;0.10;0.10;;;3.10;99.90;;;;;;5062650;28;20192;-81
2023/01/30 07:29:34;;;;;;;0.10;0.10;;;3.10;99.90;;;;;;5066234;28;20202;-82
2023/01/30 07:32:00;;;;;;;0.10;0.10;;;3.10;99.90;;;;;;5062757;28;20185;-82
2023/01/30 07:34:26;;;;;;;0.10;0.10;;;3.10;99.90;;;;;;5065883;28;20191;-80
2023/01/30 07:36:51;;;;;;;0.10;0.10;;;3.20;99.90;;;;;;5060022;28;20184;-82
2023/01/30 07:39:17;;;;;;;0.10;0.10;;;3.10;99.90;;;;;;5063347;28;20207;-82
2023/01/30 07:41:42;;;;;;;0.10;0.10;;;3.10;99.90;;;;;;5062004;28;20188;-82
2023/01/30 07:44:08;;;;;;;0.10;0.10;;;3.10;99.90;;;;;;5064243;28;20200;-81
2023/01/30 07:46:34;;;;;;;0.10;0.10;;;3.10;99.90;;;;;;5063595;28;20515;-81
2023/01/30 07:49:04;;;;;;;0.10;0.10;;;3.10;99.90;;;;;;5061801;28;20199;-81
2023/01/30 07:51:30;;;;;;;0.10;0.10;;;3.10;99.90;;;;;;5060631;28;20205;-82
2023/01/30 07:53:56;;;;;;;0.10;0.10;;;3.10;99.90;;;;;;5056964;28;20192;-82
2023/01/30 07:56:21;;;;;;;0.10;0.10;;;3.10;99.90;;;;;;5059035;28;20196;-80
2023/01/30 07:58:48;;;;;;;0.10;0.10;;;3.20;99.90;;;;;;5058955;28;20181;-81
2023/01/30 08:01:13;;;;;;;0.10;0.10;;;3.20;99.90;;;;;;5015068;28;1045502;-80
2023/01/30 08:03:39;;;;;;;0.10;0.10;;;3.20;99.90;;;;;;5055259;28;20193;-79
2023/01/30 08:06:05;;;;;;;0.10;0.10;;;3.20;99.90;;;;;;5056563;28;20188;-79
2023/01/30 08:08:31;;;;;;;0.10;0.10;;;3.20;99.90;;;;;;5059453;28;20195;-79
2023/01/30 08:10:56;;;;;;;0.10;0.10;;;3.30;99.90;;;;;;5056180;28;20199;-78
2023/01/30 08:13:22;;;;;;;0.10;0.10;;;3.30;99.90;;;;;;5054608;28;20583;-80
2023/01/30 08:15:47;;;;;;;0.10;0.10;;;3.30;99.90;;;;;;5059418;28;20185;-80
2023/01/30 08:18:13;;;;;;;0.10;0.10;;;3.30;99.90;;;;;;5056290;28;20189;-79
2023/01/30 08:20:38;;;;;;;0.10;0.10;;;3.40;99.90;;;;;;5063001;28;20280;-80
2023/01/30 08:23:04;;;;;;;0.10;0.10;;;3.40;99.90;;;;;;5061460;28;20274;-79
2023/01/30 08:25:30;;;;;;;0.10;0.10;;;3.40;99.90;;;;;;5060281;28;20265;-79
2023/01/30 08:27:59;;;;;;;0.10;0.10;;;3.50;99.90;;;;;;5061603;28;20373;-80
2023/01/30 08:30:24;;;;;;;0.10;0.10;;;3.50;99.90;;;;;;5059916;28;20238;-80
2023/01/30 08:32:50;;;;;;;0.10;0.10;;;3.50;99.90;;;;;;5061135;28;20192;-80
2023/01/30 08:35:15;;;;;;;0.10;0.10;;;3.50;99.90;;;;;;5055131;28;20604;-81
2023/01/30 08:37:41;;;;;;;0.10;0.10;;;3.60;99.90;;;;;;5057881;28;20245;-81
2023/01/30 08:40:08;;;;;;;0.10;0.10;;;3.60;99.90;;;;;;5061514;28;20821;-81
2023/01/30 08:42:34;;;;;;;0.10;0.10;;;3.70;99.90;;;;;;5066112;28;20252;-80
2023/01/30 08:44:59;;;;;;;0.10;0.10;;;3.60;99.90;;;;;;5065126;28;20189;-81
2023/01/30 08:47:25;;;;;;;0.10;0.10;;;3.70;99.90;;;;;;5064291;28;20208;-81
2023/01/30 08:49:51;;;;;;;0.10;0.10;;;3.70;99.90;;;;;;5063915;28;20216;-81
2023/01/30 08:52:18;;;;;;;0.10;0.10;;;3.70;99.90;;;;;;5062747;28;20207;-80
2023/01/30 08:54:43;;;;;;;0.10;0.10;;;3.70;99.90;;;;;;5057566;28;20216;-82
2023/01/30 08:57:09;;;;;;;0.10;0.10;;;3.70;99.90;;;;;;5060660;28;20188;-80
2023/01/30 08:59:34;;;;;;;0.10;0.10;;;3.80;99.90;;;;;;5061869;28;20212;-79
2023/01/30 09:02:00;;;;;;;0.10;0.10;;;3.70;99.90;;;;;;5063069;28;20284;-79
2023/01/30 09:04:27;;;;;;;0.10;0.10;;;3.70;99.90;;;;;;5064635;28;20265;-79
2023/01/30 09:06:53;;;;;;;0.10;0.10;;;3.80;99.90;;;;;;5064453;28;20188;-79
2023/01/30 09:09:19;;;;;;;0.10;0.10;;;3.80;99.90;;;;;;5063594;28;20211;-80
2023/01/30 09:11:46;;;;;;;0.10;0.10;;;3.80;99.90;;;;;;5064693;28;20223;-79
2023/01/30 09:14:13;;;;;;;0.10;0.10;;;3.90;99.90;;;;;;5064748;28;20189;-79
2023/01/30 09:16:38;;;;;;;0.10;0.10;;;4.00;99.90;;;;;;5061285;28;20204;-80
2023/01/30 09:19:04;;;;;;;0.10;0.10;;;4.00;99.90;;;;;;5061197;28;20215;-78
2023/01/30 09:21:30;;;;;;;0.10;0.10;;;4.10;99.90;;;;;;5064353;28;20189;-79
2023/01/30 09:23:56;;;;;;;0.10;0.10;;;4.20;99.90;;;;;;5065015;28;20251;-80
2023/01/30 09:26:22;;;;;;;0.10;0.10;;;4.20;99.90;;;;;;5064234;28;20235;-79
2023/01/30 09:28:48;;;;;;;0.10;0.10;;;4.20;99.90;;;;;;5062210;28;20304;-80
2023/01/30 09:31:13;;;;;;;0.10;0.10;;;4.30;99.90;;;;;;5061821;28;20220;-79
2023/01/30 09:33:39;;;;;;;0.10;0.10;;;4.40;99.90;;;;;;5063157;28;20194;-79
2023/01/30 09:36:05;;;;;;;0.10;0.10;;;4.40;99.90;;;;;;5063255;28;20204;-79
2023/01/30 09:38:30;;;;;;;0.10;0.10;;;4.40;99.90;;;;;;5063981;28;20196;-79
2023/01/30 09:41:11;;;;;;;0.10;0.10;;;4.40;99.90;;;;;;5063919;28;22195;-80
2023/01/30 09:44:09;;;;;;;0.10;0.10;;;4.50;99.90;;;;;;5063222;28;20555;-80
2023/01/30 09:46:59;;;;;;;0.10;0.10;;;4.50;99.90;;;;;;5050609;28;20269;-80
2023/01/30 09:49:50;;;;;;;0.03;0.03;;;4.60;99.90;;;;;;5061225;28;20239;-80
2023/01/30 09:52:34;;;;;;;0.10;0.10;;;4.70;99.90;;;;;;5061024;28;20204;-80
2023/01/30 09:55:14;;;;;;;0.10;0.10;;;4.80;99.90;;;;;;5060252;28;20871;-80
2023/01/30 09:57:40;;;;;;;0.10;0.10;;;4.90;99.90;;;;;;5061007;28;20199;-80
2023/01/30 10:00:16;;;;;;;0.10;0.10;;;4.90;99.90;;;;;;5062565;28;20223;-80
2023/01/30 10:03:09;;;;;;;0.07;0.07;;;4.80;99.90;;;;;;5061989;28;20176;-79
2023/01/30 10:05:45;;;;;;;0.10;0.10;;;4.90;99.90;;;;;;5063816;28;20199;-79
2023/01/30 10:08:33;;;;;;;0.10;0.10;;;4.90;99.90;;;;;;5059713;28;20641;-79
2023/01/30 10:11:17;;;;;;;0.10;0.10;;;5.00;99.90;;;;;;5057625;28;20529;-79
2023/01/30 10:14:04;;;;;;;0.10;0.10;;;5.00;99.90;;;;;;5062845;28;20221;-80
2023/01/30 10:16:42;;;;;;;0.10;0.10;;;4.90;99.90;;;;;;5057445;28;20674;-81
2023/01/30 10:19:33;;;;;;;0.10;0.10;;;5.00;99.90;;;;;;5059947;28;20208;-80
2023/01/30 10:22:19;;;;;;;0.10;0.10;;;5.20;99.90;;;;;;5060226;28;20555;-79
2023/01/30 10:25:09;;;;;;;0.10;0.10;;;5.70;99.90;;;;;;5063216;28;20221;-80
2023/01/30 10:27:36;;;;;;;0.10;0.10;;;5.70;99.90;;;;;;5059815;28;20283;-80
2023/01/30 10:30:06;;;;;;;0.10;0.10;;;5.50;99.90;;;;;;5062969;28;20213;-80
2023/01/30 10:32:40;;;;;;;0.10;0.10;;;5.80;99.90;;;;;;5060476;28;20231;-80
2023/01/30 10:35:19;;;;;;;0.10;0.10;;;6.10;99.90;;;;;;5058394;28;20288;-80
2023/01/30 10:38:03;;;;;;;0.10;0.10;;;6.00;99.90;;;;;;5063214;28;20184;-80
2023/01/30 10:40:39;;;;;;;0.10;0.10;;;6.00;99.90;;;;;;5062884;28;20225;-80
2023/01/30 10:43:14;;;;;;;0.10;0.10;;;6.00;99.90;;;;;;5062790;28;20191;-80
2023/01/30 10:45:58;;;;;;;0.10;0.10;;;5.90;99.90;;;;;;5060937;28;20272;-79
2023/01/30 10:48:57;;;;;;;0.10;0.10;;;5.80;99.90;;;;;;5062651;28;20272;-80
2023/01/30 10:51:50;;;;;;;0.10;0.10;;;5.90;99.90;;;;;;5062741;28;20193;-80
2023/01/30 10:54:15;;;;;;;0.10;0.10;;;5.80;99.90;;;;;;5064933;28;20189;-79
2023/01/30 10:57:02;;;;;;;0.10;0.10;;;5.80;99.90;;;;;;5063402;28;20282;-79
2023/01/30 11:00:01;;;;;;;0.10;0.10;;;5.80;99.90;;;;;;5062826;28;20221;-79
2023/01/30 11:02:48;;;;;;;0.10;0.10;;;5.80;99.90;;;;;;5061702;28;20194;-80
2023/01/30 11:05:23;;;;;;;0.10;0.10;;;5.80;99.90;;;;;;5062067;28;20181;-80
2023/01/30 11:07:49;;;;;;;0.10;0.10;;;5.80;99.90;;;;;;5060578;28;20274;-79
2023/01/30 11:10:18;;;;;;;10.93;5.07;;;5.80;99.90;;;;;;5062693;28;20299;-80
2023/01/30 11:12:43;;;;;;;0.10;0.10;;;5.90;99.90;;;;;;5060954;28;20217;-80
2023/01/30 11:15:10;;;;;;;0.10;0.10;;;5.90;99.90;;;;;;5063875;28;20654;-80
2023/01/30 11:17:44;;;;;;;0.10;0.10;;;5.90;99.90;;;;;;5063985;28;20284;-81
2023/01/30 11:20:16;;;;;;;0.10;0.10;;;6.10;99.90;;;;;;5064297;28;20210;-80
2023/01/30 11:22:51;;;;;;;0.10;0.10;;;6.20;99.90;;;;;;5065865;28;20237;-80
2023/01/30 11:25:20;;;;;;;0.10;0.10;;;6.30;99.90;;;;;;5064035;28;20254;-79
2023/01/30 11:27:58;;;;;;;0.10;0.10;;;6.40;99.90;;;;;;5055897;28;20728;-81
2023/01/30 11:30:29;;;;;;;0.10;0.10;;;6.40;99.90;;;;;;5060515;28;20300;-80
2023/01/30 11:33:13;;;;;;;0.10;0.10;;;6.40;99.90;;;;;;5055393;28;20201;-80
2023/01/30 11:35:53;;;;;;;0.10;0.10;;;6.40;99.90;;;;;;5060403;28;20331;-80
2023/01/30 11:38:34;;;;;;;1.70;1.70;;;6.50;99.90;;;;;;5061192;28;20702;-80
2023/01/30 11:41:04;;;;;;;0.10;0.10;;;6.60;99.90;;;;;;5057277;28;20236;-81
2023/01/30 11:43:33;;;;;;;0.10;0.10;;;6.80;99.90;;;;;;5054707;28;20290;-80
2023/01/30 11:45:59;;;;;;;0.10;0.10;;;7.00;99.90;;;;;;5057258;28;20183;-81
2023/01/30 11:48:28;;;;;;;0.10;0.10;;;7.00;99.90;;;;;;5060773;28;20871;-80
2023/01/30 11:51:01;;;;;;;0.10;0.10;;;7.10;99.90;;;;;;5062086;28;20730;-81
2023/01/30 11:53:35;;;;;;;0.10;0.10;;;7.10;99.90;;;;;;5061036;28;20181;-81
2023/01/30 11:56:13;;;;;;;0.10;0.10;;;7.30;99.90;;;;;;5062587;28;20652;-80
2023/01/30 11:58:40;;;;;;;0.10;0.10;;;7.10;99.90;;;;;;5061608;28;20190;-81
2023/01/30 12:01:09;;;;;;;1.30;1.30;;;7.00;99.90;;;;;;5059739;28;20220;-82
2023/01/30 12:03:44;;;;;;;0.10;0.10;;;7.10;99.90;;;;;;5062040;28;20192;-82
2023/01/30 12:06:10;;;;;;;0.10;0.10;;;7.20;99.90;;;;;;5075282;28;20184;-81
2023/01/30 12:08:38;;;;;;;0.10;0.10;;;7.20;99.90;;;;;;5059183;28;20192;-82
2023/01/30 12:11:44;;;;;;;0.10;0.10;;;7.10;99.90;;;;;;5061155;28;20214;-81
2023/01/30 12:14:33;;;;;;;0.10;0.10;;;7.00;99.90;;;;;;5059559;28;20205;-82
2023/01/30 12:17:20;;;;;;;0.10;0.10;;;6.90;99.90;;;;;;5057438;28;20205;-82
2023/01/30 12:19:59;;;;;;;0.10;0.10;;;6.80;99.90;;;;;;5062064;28;20217;-81
2023/01/30 12:22:38;;;;;;;0.10;0.10;;;6.80;99.90;;;;;;5059616;28;20550;-81
2023/01/30 12:25:15;;;;;;;0.10;0.10;;;6.90;99.90;;;;;;5062685;28;20196;-81
2023/01/30 12:28:09;;;;;;;0.10;0.10;;;6.80;99.90;;;;;;5059551;28;20200;-81
2023/01/30 12:30:46;;;;;;;0.10;0.10;;;6.80;99.90;;;;;;5062022;28;20211;-80
2023/01/30 12:33:15;;;;;;;0.10;0.10;;;6.80;99.90;;;;;;5061808;28;20197;-82
2023/01/30 12:36:11;;;;;;;0.10;0.10;;;6.80;99.90;;;;;;5065275;28;20257;-82
2023/01/30 12:38:56;;;;;;;0.10;0.10;;;6.80;99.90;;;;;;5068887;28;20231;-81
2023/01/30 12:41:58;;;;;;;0.10;0.10;;;6.80;99.90;;;;;;5065611;28;20206;-80
2023/01/30 12:44:48;;;;;;;0.10;0.10;;;6.90;99.90;;;;;;5058717;28;20186;-82
2023/01/30 12:47:35;;;;;;;0.10;0.10;;;6.90;99.90;;;;;;5069148;28;20199;-79
2023/01/30 12:50:38;;;;;;;0.10;0.10;;;6.90;99.90;;;;;;5064265;28;20325;-80
2023/01/30 12:53:12;;;;;;;0.10;0.10;;;6.90;99.90;;;;;;5061202;28;20207;-81
2023/01/30 12:55:53;;;;;;;0.10;0.10;;;6.90;99.90;;;;;;5066484;28;20172;-81
2023/01/30 12:58:26;;;;;;;0.10;0.10;;;7.00;99.90;;;;;;5062538;28;20192;-79
2023/01/30 13:01:14;;;;;;;0.00;0.00;;;7.00;99.90;;;;;;5060862;28;20248;-80
2023/01/30 13:03:49;;;;;;;0.10;0.10;;;7.00;99.90;;;;;;5061763;28;20185;-80
2023/01/30 13:06:37;;;;;;;0.10;0.10;;;7.10;99.90;;;;;;5062935;28;20755;-81
2023/01/30 13:09:32;;;;;;;0.10;0.10;;;7.20;99.90;;;;;;5063559;28;20666;-80
2023/01/30 13:12:19;;;;;;;0.10;0.10;;;7.30;99.90;;;;;;5059486;28;20610;-79
2023/01/30 13:15:07;;;;;;;0.10;0.10;;;7.30;99.90;;;;;;5065079;28;20187;-80
2023/01/30 13:17:56;;;;;;;0.10;0.10;;;7.40;99.90;;;;;;5059881;28;20190;-80
2023/01/30 13:20:50;;;;;;;0.10;0.10;;;7.40;99.90;;;;;;5062227;28;20757;-80
2023/01/30 13:23:53;;;;;;;0.10;0.10;;;7.40;99.90;;;;;;5061832;28;20281;-79
2023/01/30 13:26:25;;;;;;;0.10;0.10;;;7.40;99.90;;;;;;5059480;28;20218;-79
2023/01/30 13:28:56;;;;;;;0.10;0.10;;;7.30;99.90;;;;;;5054913;28;20795;-80